sensor_id;sensor_type;location;lat;lon;timestamp;temperature;humidity
68354;DHT22;55274;43.060;25.618;2024-02-15T00:00:53;6.70;99.90
68354;DHT22;55274;43.060;25.618;2024-02-15T00:03:19;6.70;99.90
68354;DHT22;55274;43.060;25.618;2024-02-15T00:05:45;6.70;99.90
68354;DHT22;55274;43.060;25.618;2024-02-15T00:08:12;6.70;99.90
68354;DHT22;55274;43.060;25.618;2024-02-15T00:10:37;6.70;99.90
68354;DHT22;55274;43.060;25.618;2024-02-15T00:13:03;6.70;99.90
68354;DHT22;55274;43.060;25.618;2024-02-15T00:15:32;6.70;99.90
68354;DHT22;55274;43.060;25.618;2024-02-15T00:18:00;6.70;99.90
68354;DHT22;55274;43.060;25.618;2024-02-15T00:20:25;6.70;99.90
68354;DHT22;55274;43.060;25.618;2024-02-15T00:22:51;6.70;99.90
68354;DHT22;55274;43.060;25.618;2024-02-15T00:25:18;6.60;99.90
68354;DHT22;55274;43.060;25.618;2024-02-15T00:27:45;6.60;99.90
68354;DHT22;55274;43.060;25.618;2024-02-15T00:30:11;6.60;99.90
68354;DHT22;55274;43.060;25.618;2024-02-15T00:32:37;6.60;99.90
68354;DHT22;55274;43.060;25.618;2024-02-15T00:35:04;6.60;99.90
68354;DHT22;55274;43.060;25.618;2024-02-15T00:37:35;6.60;99.90
68354;DHT22;55274;43.060;25.618;2024-02-15T00:40:01;6.60;99.90
68354;DHT22;55274;43.060;25.618;2024-02-15T00:42:30;6.60;99.90
68354;DHT22;55274;43.060;25.618;2024-02-15T00:44:57;6.50;99.90
68354;DHT22;55274;43.060;25.618;2024-02-15T00:47:23;6.50;99.90
68354;DHT22;55274;43.060;25.618;2024-02-15T00:49:49;6.50;99.90
68354;DHT22;55274;43.060;25.618;2024-02-15T00:52:16;6.50;99.90
68354;DHT22;55274;43.060;25.618;2024-02-15T00:54:45;6.50;99.90
68354;DHT22;55274;43.060;25.618;2024-02-15T00:57:11;6.40;99.90
68354;DHT22;55274;43.060;25.618;2024-02-15T00:59:37;6.40;99.90
68354;DHT22;55274;43.060;25.618;2024-02-15T01:02:03;6.40;99.90
68354;DHT22;55274;43.060;25.618;2024-02-15T01:04:31;6.40;99.90
68354;DHT22;55274;43.060;25.618;2024-02-15T01:06:56;6.40;99.90
68354;DHT22;55274;43.060;25.618;2024-02-15T01:09:22;6.40;99.90
68354;DHT22;55274;43.060;25.618;2024-02-15T01:11:48;6.30;99.90
68354;DHT22;55274;43.060;25.618;2024-02-15T01:14:15;6.30;99.90
68354;DHT22;55274;43.060;25.618;2024-02-15T01:16:41;6.30;99.90
68354;DHT22;55274;43.060;25.618;2024-02-15T01:19:07;6.20;99.90
68354;DHT22;55274;43.060;25.618;2024-02-15T01:21:33;6.20;99.90
68354;DHT22;55274;43.060;25.618;2024-02-15T01:23:59;6.10;99.90
68354;DHT22;55274;43.060;25.618;2024-02-15T01:26:26;6.10;99.90
68354;DHT22;55274;43.060;25.618;2024-02-15T01:28:53;6.20;99.90
68354;DHT22;55274;43.060;25.618;2024-02-15T01:31:18;6.10;99.90
68354;DHT22;55274;43.060;25.618;2024-02-15T01:33:45;6.20;99.90
68354;DHT22;55274;43.060;25.618;2024-02-15T01:36:14;6.20;99.90
68354;DHT22;55274;43.060;25.618;2024-02-15T01:38:41;6.20;99.90
68354;DHT22;55274;43.060;25.618;2024-02-15T01:41:08;6.20;99.90
68354;DHT22;55274;43.060;25.618;2024-02-15T01:43:35;6.20;99.90
68354;DHT22;55274;43.060;25.618;2024-02-15T01:46:02;6.10;99.90
68354;DHT22;55274;43.060;25.618;2024-02-15T01:48:33;6.20;99.90
68354;DHT22;55274;43.060;25.618;2024-02-15T01:50:59;6.10;99.90
68354;DHT22;55274;43.060;25.618;2024-02-15T01:53:25;6.20;99.90
68354;DHT22;55274;43.060;25.618;2024-02-15T01:55:53;6.10;99.90
68354;DHT22;55274;43.060;25.618;2024-02-15T01:58:26;6.00;99.90
68354;DHT22;55274;43.060;25.618;2024-02-15T02:00:53;6.10;99.90
68354;DHT22;55274;43.060;25.618;2024-02-15T02:03:21;6.10;99.90
68354;DHT22;55274;43.060;25.618;2024-02-15T02:05:47;6.00;99.90
68354;DHT22;55274;43.060;25.618;2024-02-15T02:08:13;5.90;99.90
68354;DHT22;55274;43.060;25.618;2024-02-15T02:10:39;6.00;99.90
68354;DHT22;55274;43.060;25.618;2024-02-15T02:13:05;5.90;99.90
68354;DHT22;55274;43.060;25.618;2024-02-15T02:15:31;6.00;99.90
68354;DHT22;55274;43.060;25.618;2024-02-15T02:18:00;6.00;99.90
68354;DHT22;55274;43.060;25.618;2024-02-15T02:20:26;5.90;99.90
68354;DHT22;55274;43.060;25.618;2024-02-15T02:22:54;5.90;99.90
68354;DHT22;55274;43.060;25.618;2024-02-15T02:25:25;5.90;99.90
68354;DHT22;55274;43.060;25.618;2024-02-15T02:27:55;5.90;99.90
68354;DHT22;55274;43.060;25.618;2024-02-15T02:30:21;6.00;99.90
68354;DHT22;55274;43.060;25.618;2024-02-15T02:32:48;6.00;99.90
68354;DHT22;55274;43.060;25.618;2024-02-15T02:35:14;5.90;99.90
68354;DHT22;55274;43.060;25.618;2024-02-15T02:37:42;6.00;99.90
68354;DHT22;55274;43.060;25.618;2024-02-15T02:40:09;5.90;99.90
68354;DHT22;55274;43.060;25.618;2024-02-15T02:42:49;5.90;99.90
68354;DHT22;55274;43.060;25.618;2024-02-15T02:45:15;6.00;99.90
68354;DHT22;55274;43.060;25.618;2024-02-15T02:47:41;5.90;99.90
68354;DHT22;55274;43.060;25.618;2024-02-15T02:50:07;6.00;99.90
68354;DHT22;55274;43.060;25.618;2024-02-15T02:52:33;6.00;99.90
68354;DHT22;55274;43.060;25.618;2024-02-15T02:54:59;6.00;99.90
68354;DHT22;55274;43.060;25.618;2024-02-15T02:57:25;6.00;99.90
68354;DHT22;55274;43.060;25.618;2024-02-15T02:59:51;5.90;99.90
68354;DHT22;55274;43.060;25.618;2024-02-15T03:02:17;5.90;99.90
68354;DHT22;55274;43.060;25.618;2024-02-15T03:04:43;5.90;99.90
68354;DHT22;55274;43.060;25.618;2024-02-15T03:07:09;5.90;99.90
68354;DHT22;55274;43.060;25.618;2024-02-15T03:09:35;5.90;99.90
68354;DHT22;55274;43.060;25.618;2024-02-15T03:12:03;5.90;99.90
68354;DHT22;55274;43.060;25.618;2024-02-15T03:14:29;5.90;99.90
68354;DHT22;55274;43.060;25.618;2024-02-15T03:16:56;5.80;99.90
68354;DHT22;55274;43.060;25.618;2024-02-15T03:19:22;5.80;99.90
68354;DHT22;55274;43.060;25.618;2024-02-15T03:21:48;5.80;99.90
68354;DHT22;55274;43.060;25.618;2024-02-15T03:24:14;5.80;99.90
68354;DHT22;55274;43.060;25.618;2024-02-15T03:26:40;5.80;99.90
68354;DHT22;55274;43.060;25.618;2024-02-15T03:29:08;5.80;99.90
68354;DHT22;55274;43.060;25.618;2024-02-15T03:31:34;5.80;99.90
68354;DHT22;55274;43.060;25.618;2024-02-15T03:34:03;5.80;99.90
68354;DHT22;55274;43.060;25.618;2024-02-15T03:36:29;5.80;99.90
68354;DHT22;55274;43.060;25.618;2024-02-15T03:38:55;5.80;99.90
68354;DHT22;55274;43.060;25.618;2024-02-15T03:41:22;5.80;99.90
68354;DHT22;55274;43.060;25.618;2024-02-15T03:43:49;5.80;99.90
68354;DHT22;55274;43.060;25.618;2024-02-15T03:46:14;5.80;99.90
68354;DHT22;55274;43.060;25.618;2024-02-15T03:48:44;5.80;99.90
68354;DHT22;55274;43.060;25.618;2024-02-15T03:51:10;5.80;99.90
68354;DHT22;55274;43.060;25.618;2024-02-15T03:53:35;5.70;99.90
68354;DHT22;55274;43.060;25.618;2024-02-15T03:56:05;5.80;99.90
68354;DHT22;55274;43.060;25.618;2024-02-15T03:58:32;5.80;99.90
68354;DHT22;55274;43.060;25.618;2024-02-15T04:00:59;5.80;99.90
68354;DHT22;55274;43.060;25.618;2024-02-15T04:03:24;5.80;99.90
68354;DHT22;55274;43.060;25.618;2024-02-15T04:05:50;5.80;99.90
68354;DHT22;55274;43.060;25.618;2024-02-15T04:08:16;5.80;99.90
68354;DHT22;55274;43.060;25.618;2024-02-15T04:10:42;5.70;99.90
68354;DHT22;55274;43.060;25.618;2024-02-15T04:13:08;5.70;99.90
68354;DHT22;55274;43.060;25.618;2024-02-15T04:15:34;5.80;99.90
68354;DHT22;55274;43.060;25.618;2024-02-15T04:18:00;5.70;99.90
68354;DHT22;55274;43.060;25.618;2024-02-15T04:20:26;5.80;99.90
68354;DHT22;55274;43.060;25.618;2024-02-15T04:22:52;5.80;99.90
68354;DHT22;55274;43.060;25.618;2024-02-15T04:25:20;5.80;99.90
68354;DHT22;55274;43.060;25.618;2024-02-15T04:27:48;5.70;99.90
68354;DHT22;55274;43.060;25.618;2024-02-15T04:30:15;5.80;99.90
68354;DHT22;55274;43.060;25.618;2024-02-15T04:32:44;5.70;99.90
68354;DHT22;55274;43.060;25.618;2024-02-15T04:35:10;5.70;99.90
68354;DHT22;55274;43.060;25.618;2024-02-15T04:37:37;5.60;99.90
68354;DHT22;55274;43.060;25.618;2024-02-15T04:40:04;5.60;99.90
68354;DHT22;55274;43.060;25.618;2024-02-15T04:42:36;5.60;99.90
68354;DHT22;55274;43.060;25.618;2024-02-15T04:45:10;5.60;99.90
68354;DHT22;55274;43.060;25.618;2024-02-15T04:47:38;5.60;99.90
68354;DHT22;55274;43.060;25.618;2024-02-15T04:50:06;5.70;99.90
68354;DHT22;55274;43.060;25.618;2024-02-15T04:52:33;5.70;99.90
68354;DHT22;55274;43.060;25.618;2024-02-15T04:54:58;5.70;99.90
68354;DHT22;55274;43.060;25.618;2024-02-15T04:57:27;5.60;99.90
68354;DHT22;55274;43.060;25.618;2024-02-15T04:59:55;5.70;99.90
68354;DHT22;55274;43.060;25.618;2024-02-15T05:02:21;5.60;99.90
68354;DHT22;55274;43.060;25.618;2024-02-15T05:04:50;5.70;99.90
68354;DHT22;55274;43.060;25.618;2024-02-15T05:07:22;5.70;99.90
68354;DHT22;55274;43.060;25.618;2024-02-15T05:09:49;5.70;99.90
68354;DHT22;55274;43.060;25.618;2024-02-15T05:12:22;5.70;99.90
68354;DHT22;55274;43.060;25.618;2024-02-15T05:14:49;5.70;99.90
68354;DHT22;55274;43.060;25.618;2024-02-15T05:17:16;5.70;99.90
68354;DHT22;55274;43.060;25.618;2024-02-15T05:19:42;5.60;99.90
68354;DHT22;55274;43.060;25.618;2024-02-15T05:22:08;5.60;99.90
68354;DHT22;55274;43.060;25.618;2024-02-15T05:24:34;5.60;99.90
68354;DHT22;55274;43.060;25.618;2024-02-15T05:26:59;5.60;99.90
68354;DHT22;55274;43.060;25.618;2024-02-15T05:29:26;5.60;99.90
68354;DHT22;55274;43.060;25.618;2024-02-15T05:31:53;5.60;99.90
68354;DHT22;55274;43.060;25.618;2024-02-15T05:34:20;5.60;99.90
68354;DHT22;55274;43.060;25.618;2024-02-15T05:36:46;5.70;99.90
68354;DHT22;55274;43.060;25.618;2024-02-15T05:39:13;5.60;99.90
68354;DHT22;55274;43.060;25.618;2024-02-15T05:41:40;5.70;99.90
68354;DHT22;55274;43.060;25.618;2024-02-15T05:44:06;5.70;99.90
68354;DHT22;55274;43.060;25.618;2024-02-15T05:46:34;5.70;99.90
68354;DHT22;55274;43.060;25.618;2024-02-15T05:49:03;5.70;99.90
68354;DHT22;55274;43.060;25.618;2024-02-15T05:51:30;5.70;99.90
68354;DHT22;55274;43.060;25.618;2024-02-15T05:53:57;5.70;99.90
68354;DHT22;55274;43.060;25.618;2024-02-15T05:56:25;5.70;99.90
68354;DHT22;55274;43.060;25.618;2024-02-15T05:58:52;5.70;99.90
68354;DHT22;55274;43.060;25.618;2024-02-15T06:01:18;5.60;99.90
68354;DHT22;55274;43.060;25.618;2024-02-15T06:03:43;5.60;99.90
68354;DHT22;55274;43.060;25.618;2024-02-15T06:06:10;5.70;99.90
68354;DHT22;55274;43.060;25.618;2024-02-15T06:08:37;5.70;99.90
68354;DHT22;55274;43.060;25.618;2024-02-15T06:11:04;5.70;99.90
68354;DHT22;55274;43.060;25.618;2024-02-15T06:13:35;5.80;99.90
68354;DHT22;55274;43.060;25.618;2024-02-15T06:16:00;5.80;99.90
68354;DHT22;55274;43.060;25.618;2024-02-15T06:18:29;5.80;99.90
68354;DHT22;55274;43.060;25.618;2024-02-15T06:20:59;5.80;99.90
68354;DHT22;55274;43.060;25.618;2024-02-15T06:23:26;5.80;99.90
68354;DHT22;55274;43.060;25.618;2024-02-15T06:25:54;5.80;99.90
68354;DHT22;55274;43.060;25.618;2024-02-15T06:28:20;5.90;99.90
68354;DHT22;55274;43.060;25.618;2024-02-15T06:31:09;5.90;99.90
68354;DHT22;55274;43.060;25.618;2024-02-15T06:33:54;5.90;99.90
68354;DHT22;55274;43.060;25.618;2024-02-15T06:36:49;5.90;99.90
68354;DHT22;55274;43.060;25.618;2024-02-15T06:39:34;5.90;99.90
68354;DHT22;55274;43.060;25.618;2024-02-15T06:42:04;6.00;99.90
68354;DHT22;55274;43.060;25.618;2024-02-15T06:44:30;6.00;99.90
68354;DHT22;55274;43.060;25.618;2024-02-15T06:46:56;6.00;99.90
68354;DHT22;55274;43.060;25.618;2024-02-15T06:49:23;6.10;99.90
68354;DHT22;55274;43.060;25.618;2024-02-15T06:51:50;6.10;99.90
68354;DHT22;55274;43.060;25.618;2024-02-15T06:54:16;6.10;99.90
68354;DHT22;55274;43.060;25.618;2024-02-15T06:56:45;6.20;99.90
68354;DHT22;55274;43.060;25.618;2024-02-15T06:59:12;6.20;99.90
68354;DHT22;55274;43.060;25.618;2024-02-15T07:01:43;6.20;99.90
68354;DHT22;55274;43.060;25.618;2024-02-15T07:04:10;6.30;99.90
68354;DHT22;55274;43.060;25.618;2024-02-15T07:06:37;6.30;99.90
68354;DHT22;55274;43.060;25.618;2024-02-15T07:09:04;6.40;99.90
68354;DHT22;55274;43.060;25.618;2024-02-15T07:11:32;6.40;99.90
68354;DHT22;55274;43.060;25.618;2024-02-15T07:13:58;6.40;99.90
68354;DHT22;55274;43.060;25.618;2024-02-15T07:16:24;6.40;99.90
68354;DHT22;55274;43.060;25.618;2024-02-15T07:18:49;6.50;99.90
68354;DHT22;55274;43.060;25.618;2024-02-15T07:21:15;6.50;99.90
68354;DHT22;55274;43.060;25.618;2024-02-15T07:23:42;6.50;99.90
68354;DHT22;55274;43.060;25.618;2024-02-15T07:26:08;6.60;99.90
68354;DHT22;55274;43.060;25.618;2024-02-15T07:28:34;6.70;99.90
68354;DHT22;55274;43.060;25.618;2024-02-15T07:31:00;6.80;99.90
68354;DHT22;55274;43.060;25.618;2024-02-15T07:33:28;6.80;99.90
68354;DHT22;55274;43.060;25.618;2024-02-15T07:35:54;6.80;99.90
68354;DHT22;55274;43.060;25.618;2024-02-15T07:38:22;6.90;99.90
68354;DHT22;55274;43.060;25.618;2024-02-15T07:40:49;7.00;99.90
68354;DHT22;55274;43.060;25.618;2024-02-15T07:43:15;7.10;99.90
68354;DHT22;55274;43.060;25.618;2024-02-15T07:45:42;7.10;99.90
68354;DHT22;55274;43.060;25.618;2024-02-15T07:48:08;7.20;99.90
68354;DHT22;55274;43.060;25.618;2024-02-15T07:50:33;7.30;99.90
68354;DHT22;55274;43.060;25.618;2024-02-15T07:52:59;7.60;99.90
68354;DHT22;55274;43.060;25.618;2024-02-15T07:55:25;7.90;99.90
68354;DHT22;55274;43.060;25.618;2024-02-15T07:57:51;8.20;99.90
68354;DHT22;55274;43.060;25.618;2024-02-15T08:00:18;8.50;99.90
68354;DHT22;55274;43.060;25.618;2024-02-15T08:02:45;8.80;99.90
68354;DHT22;55274;43.060;25.618;2024-02-15T08:05:12;9.10;99.90
68354;DHT22;55274;43.060;25.618;2024-02-15T08:07:45;9.40;99.90
68354;DHT22;55274;43.060;25.618;2024-02-15T08:10:12;9.50;99.90
68354;DHT22;55274;43.060;25.618;2024-02-15T08:12:41;9.50;99.90
68354;DHT22;55274;43.060;25.618;2024-02-15T08:15:09;9.80;99.90
68354;DHT22;55274;43.060;25.618;2024-02-15T08:17:44;9.90;99.90
68354;DHT22;55274;43.060;25.618;2024-02-15T08:20:13;9.90;98.80
68354;DHT22;55274;43.060;25.618;2024-02-15T08:22:40;9.90;98.70
68354;DHT22;55274;43.060;25.618;2024-02-15T08:25:11;9.80;95.30
68354;DHT22;55274;43.060;25.618;2024-02-15T08:27:41;9.60;95.10
68354;DHT22;55274;43.060;25.618;2024-02-15T08:30:10;9.70;94.70
68354;DHT22;55274;43.060;25.618;2024-02-15T08:32:37;9.80;94.80
68354;DHT22;55274;43.060;25.618;2024-02-15T08:35:05;9.90;91.90
68354;DHT22;55274;43.060;25.618;2024-02-15T08:37:32;9.90;91.50
68354;DHT22;55274;43.060;25.618;2024-02-15T08:39:59;10.10;92.10
68354;DHT22;55274;43.060;25.618;2024-02-15T08:42:25;10.20;90.20
68354;DHT22;55274;43.060;25.618;2024-02-15T08:44:52;10.50;91.50
68354;DHT22;55274;43.060;25.618;2024-02-15T08:47:18;10.80;90.60
68354;DHT22;55274;43.060;25.618;2024-02-15T08:49:43;10.90;88.80
68354;DHT22;55274;43.060;25.618;2024-02-15T08:52:09;11.10;87.60
68354;DHT22;55274;43.060;25.618;2024-02-15T08:54:36;11.30;85.70
68354;DHT22;55274;43.060;25.618;2024-02-15T08:57:05;11.10;84.00
68354;DHT22;55274;43.060;25.618;2024-02-15T08:59:31;11.20;85.40
68354;DHT22;55274;43.060;25.618;2024-02-15T09:01:57;11.30;82.30
68354;DHT22;55274;43.060;25.618;2024-02-15T09:04:25;11.60;83.30
68354;DHT22;55274;43.060;25.618;2024-02-15T09:06:52;11.80;82.60
68354;DHT22;55274;43.060;25.618;2024-02-15T09:09:17;11.60;80.00
68354;DHT22;55274;43.060;25.618;2024-02-15T09:11:43;11.60;80.20
68354;DHT22;55274;43.060;25.618;2024-02-15T09:14:09;11.60;80.30
68354;DHT22;55274;43.060;25.618;2024-02-15T09:16:38;11.90;80.90
68354;DHT22;55274;43.060;25.618;2024-02-15T09:19:05;12.20;78.20
68354;DHT22;55274;43.060;25.618;2024-02-15T09:21:32;12.40;79.10
68354;DHT22;55274;43.060;25.618;2024-02-15T09:23:59;12.30;76.00
68354;DHT22;55274;43.060;25.618;2024-02-15T09:26:25;12.30;77.10
68354;DHT22;55274;43.060;25.618;2024-02-15T09:28:51;12.30;77.50
68354;DHT22;55274;43.060;25.618;2024-02-15T09:31:19;12.30;77.30
68354;DHT22;55274;43.060;25.618;2024-02-15T09:33:45;12.20;77.20
68354;DHT22;55274;43.060;25.618;2024-02-15T09:38:55;12.20;76.90
68354;DHT22;55274;43.060;25.618;2024-02-15T09:41:21;12.10;76.80
68354;DHT22;55274;43.060;25.618;2024-02-15T09:43:46;12.00;77.50
68354;DHT22;55274;43.060;25.618;2024-02-15T09:46:13;12.00;77.50
68354;DHT22;55274;43.060;25.618;2024-02-15T09:48:39;12.00;77.10
68354;DHT22;55274;43.060;25.618;2024-02-15T09:51:07;12.00;76.70
68354;DHT22;55274;43.060;25.618;2024-02-15T09:53:34;12.00;77.10
68354;DHT22;55274;43.060;25.618;2024-02-15T09:56:00;11.90;75.80
68354;DHT22;55274;43.060;25.618;2024-02-15T09:58:30;11.80;76.30
68354;DHT22;55274;43.060;25.618;2024-02-15T10:01:01;11.90;77.10
68354;DHT22;55274;43.060;25.618;2024-02-15T10:03:31;11.90;76.70
68354;DHT22;55274;43.060;25.618;2024-02-15T10:05:58;12.00;77.60
68354;DHT22;55274;43.060;25.618;2024-02-15T10:08:23;12.00;78.30
68354;DHT22;55274;43.060;25.618;2024-02-15T10:11:06;12.00;77.10
68354;DHT22;55274;43.060;25.618;2024-02-15T10:13:34;12.00;79.50
68354;DHT22;55274;43.060;25.618;2024-02-15T10:16:17;12.00;77.70
68354;DHT22;55274;43.060;25.618;2024-02-15T10:18:44;12.10;78.10
68354;DHT22;55274;43.060;25.618;2024-02-15T10:21:24;12.00;77.20
68354;DHT22;55274;43.060;25.618;2024-02-15T10:24:03;12.10;78.20
68354;DHT22;55274;43.060;25.618;2024-02-15T10:26:31;12.10;76.70
68354;DHT22;55274;43.060;25.618;2024-02-15T10:29:11;12.10;77.60
68354;DHT22;55274;43.060;25.618;2024-02-15T10:31:39;12.10;78.00
68354;DHT22;55274;43.060;25.618;2024-02-15T10:34:07;12.10;78.00
68354;DHT22;55274;43.060;25.618;2024-02-15T10:36:34;11.90;78.40
68354;DHT22;55274;43.060;25.618;2024-02-15T10:39:19;11.90;77.70
68354;DHT22;55274;43.060;25.618;2024-02-15T10:41:53;11.80;78.00
68354;DHT22;55274;43.060;25.618;2024-02-15T10:44:20;11.60;77.30
68354;DHT22;55274;43.060;25.618;2024-02-15T10:46:48;11.70;78.70
68354;DHT22;55274;43.060;25.618;2024-02-15T10:49:21;11.80;78.90
68354;DHT22;55274;43.060;25.618;2024-02-15T10:51:57;11.80;79.80
68354;DHT22;55274;43.060;25.618;2024-02-15T10:57:20;11.90;78.90
68354;DHT22;55274;43.060;25.618;2024-02-15T10:59:57;12.10;78.40
68354;DHT22;55274;43.060;25.618;2024-02-15T11:05:07;12.30;77.10
68354;DHT22;55274;43.060;25.618;2024-02-15T11:07:37;12.30;77.60
68354;DHT22;55274;43.060;25.618;2024-02-15T11:10:05;12.40;76.40
68354;DHT22;55274;43.060;25.618;2024-02-15T11:12:36;12.50;77.30
68354;DHT22;55274;43.060;25.618;2024-02-15T11:15:10;12.50;76.40
68354;DHT22;55274;43.060;25.618;2024-02-15T11:17:47;12.50;75.00
68354;DHT22;55274;43.060;25.618;2024-02-15T11:20:49;12.60;75.50
68354;DHT22;55274;43.060;25.618;2024-02-15T11:23:23;12.50;76.70
68354;DHT22;55274;43.060;25.618;2024-02-15T11:25:55;12.40;76.30
68354;DHT22;55274;43.060;25.618;2024-02-15T11:30:53;12.30;77.50
68354;DHT22;55274;43.060;25.618;2024-02-15T11:33:28;12.30;76.30
68354;DHT22;55274;43.060;25.618;2024-02-15T11:38:32;12.40;75.90
68354;DHT22;55274;43.060;25.618;2024-02-15T11:41:02;12.40;76.20
68354;DHT22;55274;43.060;25.618;2024-02-15T11:46:26;12.50;75.80
68354;DHT22;55274;43.060;25.618;2024-02-15T11:48:56;12.40;75.80
68354;DHT22;55274;43.060;25.618;2024-02-15T11:51:35;12.50;77.30
68354;DHT22;55274;43.060;25.618;2024-02-15T11:54:11;12.50;76.20
68354;DHT22;55274;43.060;25.618;2024-02-15T11:59:09;12.40;76.00
68354;DHT22;55274;43.060;25.618;2024-02-15T12:01:44;12.50;76.20
68354;DHT22;55274;43.060;25.618;2024-02-15T12:04:30;12.40;76.20
68354;DHT22;55274;43.060;25.618;2024-02-15T12:07:15;12.50;76.20
68354;DHT22;55274;43.060;25.618;2024-02-15T12:09:59;12.40;76.00
68354;DHT22;55274;43.060;25.618;2024-02-15T12:12:54;12.40;75.60
68354;DHT22;55274;43.060;25.618;2024-02-15T12:15:38;12.30;75.20
68354;DHT22;55274;43.060;25.618;2024-02-15T12:18:22;12.40;76.80
68354;DHT22;55274;43.060;25.618;2024-02-15T12:21:07;12.60;75.40
68354;DHT22;55274;43.060;25.618;2024-02-15T12:23:37;12.60;75.60
68354;DHT22;55274;43.060;25.618;2024-02-15T12:26:03;12.70;75.30
68354;DHT22;55274;43.060;25.618;2024-02-15T12:28:30;12.70;74.50
68354;DHT22;55274;43.060;25.618;2024-02-15T12:30:56;12.60;74.90
68354;DHT22;55274;43.060;25.618;2024-02-15T12:33:26;12.60;75.00
68354;DHT22;55274;43.060;25.618;2024-02-15T12:36:06;12.60;74.20
68354;DHT22;55274;43.060;25.618;2024-02-15T12:38:33;12.60;74.10
68354;DHT22;55274;43.060;25.618;2024-02-15T12:41:03;12.60;75.80
68354;DHT22;55274;43.060;25.618;2024-02-15T12:43:29;12.70;74.70
68354;DHT22;55274;43.060;25.618;2024-02-15T12:45:55;12.50;73.70
68354;DHT22;55274;43.060;25.618;2024-02-15T12:48:22;12.50;74.70
68354;DHT22;55274;43.060;25.618;2024-02-15T12:50:48;12.50;74.70
68354;DHT22;55274;43.060;25.618;2024-02-15T12:53:21;12.60;73.90
68354;DHT22;55274;43.060;25.618;2024-02-15T12:55:53;12.50;73.90
68354;DHT22;55274;43.060;25.618;2024-02-15T12:58:22;12.40;74.00
68354;DHT22;55274;43.060;25.618;2024-02-15T13:00:54;12.50;74.20
68354;DHT22;55274;43.060;25.618;2024-02-15T13:03:24;12.40;73.40
68354;DHT22;55274;43.060;25.618;2024-02-15T13:05:49;12.40;73.90
68354;DHT22;55274;43.060;25.618;2024-02-15T13:08:15;12.40;74.90
68354;DHT22;55274;43.060;25.618;2024-02-15T13:10:43;12.40;75.10
68354;DHT22;55274;43.060;25.618;2024-02-15T13:13:09;12.40;74.90
68354;DHT22;55274;43.060;25.618;2024-02-15T13:15:35;12.30;75.30
68354;DHT22;55274;43.060;25.618;2024-02-15T13:18:03;12.30;74.80
68354;DHT22;55274;43.060;25.618;2024-02-15T13:20:30;12.30;76.00
68354;DHT22;55274;43.060;25.618;2024-02-15T13:23:08;12.30;74.60
68354;DHT22;55274;43.060;25.618;2024-02-15T13:25:35;12.30;75.80
68354;DHT22;55274;43.060;25.618;2024-02-15T13:28:02;12.30;75.80
68354;DHT22;55274;43.060;25.618;2024-02-15T13:30:29;12.20;75.90
68354;DHT22;55274;43.060;25.618;2024-02-15T13:32:56;12.10;75.80
68354;DHT22;55274;43.060;25.618;2024-02-15T13:35:21;12.00;75.30
68354;DHT22;55274;43.060;25.618;2024-02-15T13:37:55;11.90;76.30
68354;DHT22;55274;43.060;25.618;2024-02-15T13:40:24;11.80;75.00
68354;DHT22;55274;43.060;25.618;2024-02-15T13:42:58;11.80;76.60
68354;DHT22;55274;43.060;25.618;2024-02-15T13:45:28;11.70;76.30
68354;DHT22;55274;43.060;25.618;2024-02-15T13:48:01;11.60;76.70
68354;DHT22;55274;43.060;25.618;2024-02-15T13:50:29;11.50;76.50
68354;DHT22;55274;43.060;25.618;2024-02-15T13:52:55;11.50;75.90
68354;DHT22;55274;43.060;25.618;2024-02-15T13:55:21;11.40;76.80
68354;DHT22;55274;43.060;25.618;2024-02-15T13:57:48;11.40;75.50
68354;DHT22;55274;43.060;25.618;2024-02-15T14:00:15;11.40;75.70
68354;DHT22;55274;43.060;25.618;2024-02-15T14:02:56;11.40;76.00
68354;DHT22;55274;43.060;25.618;2024-02-15T14:05:24;11.40;75.80
68354;DHT22;55274;43.060;25.618;2024-02-15T14:07:56;11.40;76.00
68354;DHT22;55274;43.060;25.618;2024-02-15T14:10:23;11.40;76.30
68354;DHT22;55274;43.060;25.618;2024-02-15T14:12:50;11.40;76.70
68354;DHT22;55274;43.060;25.618;2024-02-15T14:15:27;11.30;77.20
68354;DHT22;55274;43.060;25.618;2024-02-15T14:17:53;11.40;77.90
68354;DHT22;55274;43.060;25.618;2024-02-15T14:20:21;11.30;78.10
68354;DHT22;55274;43.060;25.618;2024-02-15T14:22:48;11.30;78.90
68354;DHT22;55274;43.060;25.618;2024-02-15T14:25:18;11.20;79.80
68354;DHT22;55274;43.060;25.618;2024-02-15T14:27:44;11.20;80.40
68354;DHT22;55274;43.060;25.618;2024-02-15T14:30:10;11.00;80.40
68354;DHT22;55274;43.060;25.618;2024-02-15T14:32:55;11.00;80.10
68354;DHT22;55274;43.060;25.618;2024-02-15T14:37:56;10.90;81.60
68354;DHT22;55274;43.060;25.618;2024-02-15T14:40:24;10.80;80.40
68354;DHT22;55274;43.060;25.618;2024-02-15T14:42:50;10.80;80.90
68354;DHT22;55274;43.060;25.618;2024-02-15T14:45:16;10.80;81.80
68354;DHT22;55274;43.060;25.618;2024-02-15T14:47:42;10.70;82.00
68354;DHT22;55274;43.060;25.618;2024-02-15T14:50:08;10.70;81.60
68354;DHT22;55274;43.060;25.618;2024-02-15T14:52:37;10.70;82.30
68354;DHT22;55274;43.060;25.618;2024-02-15T14:55:04;10.70;81.90
68354;DHT22;55274;43.060;25.618;2024-02-15T14:57:31;10.70;82.30
68354;DHT22;55274;43.060;25.618;2024-02-15T14:59:58;10.70;81.80
68354;DHT22;55274;43.060;25.618;2024-02-15T15:02:24;10.70;82.20
68354;DHT22;55274;43.060;25.618;2024-02-15T15:04:50;10.70;81.40
68354;DHT22;55274;43.060;25.618;2024-02-15T15:07:34;10.70;82.10
68354;DHT22;55274;43.060;25.618;2024-02-15T15:10:18;10.70;82.60
68354;DHT22;55274;43.060;25.618;2024-02-15T15:13:03;10.60;81.80
68354;DHT22;55274;43.060;25.618;2024-02-15T15:15:29;10.60;82.40
68354;DHT22;55274;43.060;25.618;2024-02-15T15:17:56;10.60;83.80
68354;DHT22;55274;43.060;25.618;2024-02-15T15:20:21;10.60;83.70
68354;DHT22;55274;43.060;25.618;2024-02-15T15:22:47;10.60;83.70
68354;DHT22;55274;43.060;25.618;2024-02-15T15:25:13;10.60;84.00
68354;DHT22;55274;43.060;25.618;2024-02-15T15:27:39;10.60;83.80
68354;DHT22;55274;43.060;25.618;2024-02-15T15:30:06;10.50;83.80
68354;DHT22;55274;43.060;25.618;2024-02-15T15:32:32;10.50;83.50
68354;DHT22;55274;43.060;25.618;2024-02-15T15:34:59;10.40;83.50
68354;DHT22;55274;43.060;25.618;2024-02-15T15:37:25;10.30;84.20
68354;DHT22;55274;43.060;25.618;2024-02-15T15:39:50;10.30;85.30
68354;DHT22;55274;43.060;25.618;2024-02-15T15:42:16;10.20;85.30
68354;DHT22;55274;43.060;25.618;2024-02-15T15:44:43;10.10;85.80
68354;DHT22;55274;43.060;25.618;2024-02-15T15:47:09;10.10;86.00
68354;DHT22;55274;43.060;25.618;2024-02-15T15:49:35;10.00;85.90
68354;DHT22;55274;43.060;25.618;2024-02-15T15:52:02;9.90;88.50
68354;DHT22;55274;43.060;25.618;2024-02-15T15:54:27;9.80;89.20